Sunday, April 20, 2014
18:25 UTC
  |  Log In   |  Register Free
Airport Search:

De Kalb County Airport
(KGWB)

De Kalb County Airport Diagram
No Airport Diagram Available

FAA data valid effective April 3, 2014 until May 29, 2014 (unless otherwise noted).

 
 
 
 
 
 
 
 
 
 
 
 
 
 

Current Aviation Weather for De Kalb County Airport (KGWB)

The most recent METAR observation for KGWB was updated at: 1755 UTC
METAR Summary (Translated METAR)
KGWB
201755Z AUTO 24003KT 10SM CLR 20/00 A3023 RMK AO2
KFWA
(20.6 nm SW from KGWB)
201754Z 24006KT 10SM SCT230 BKN340 20/00 A3022 RMK AO2 SLP236 T02000000 10211 20028 58018
TAF Summary (Translated TAF)
KFWA
(20.6 nm SW from KGWB)
201720Z 2018/2118 20008KT P6SM BKN250 FM211200 21010KT P6SM SCT050 BKN250
  Airport Weather Conditions for KGWB

 Current Weather at GWB
66° F
Fair
South winds at 4.6 mph
GWB NOAA Radar

Pressure: 30.23 in
Humidity: 28%
Wind: South at 4.6 MPH (4 KT)
Dew Point: 32.0°F
Visibility: 10.00 mi


Airport Weather Forecast for KGWB

Translated METAR and TAF for KGWB
Translated METAR for KGWB (1825 UTC 20 April 2014)
found at http://aviationweather.gov/adds/metars/
 
METAR text: KGWB 201815Z AUTO 22006KT 10SM CLR 20/00 A3023 RMK AO2
Conditions at: KGWB (AUBURN DEKALB C , IN, US) observed 1815 UTC 20 April 2014
Temperature: 20.0°C (68°F)
Dewpoint: 0.0°C (32°F) [RH = 26%]
Pressure (altimeter): 30.23 inches Hg (1023.8 mb)
Winds: from the SW (220 degrees) at 7 MPH (6 knots; 3.1 m/s)
Visibility: 10 or more miles (16+ km)
Ceiling: at least 12,000 feet AGL
Clouds: sky clear below 12,000 feet AGL
Weather: automated observation with no human augmentation;
there may or may not be significant weather present at this time
Translated TAF for KGWB

There is no translated TAF available for this airport

Find All Airport Services Find A Hotel Find A Rental Car Find A Golf Course Find A Restaurant $100 Hamburger



FBO's on the Field
FBO Company Facility Photos Services Transportation Aviation Fuel Prices: Prices include tax
Catering Weather Repair Courtesy Rental Type 100LL JetA JetA+ MOGAS 8087
 
Century Aviation

This FBO has not yet been rated
FS:Shell
Last Updated: Mar-26
Login to update fuel prices
SS:
Contact Century AviationMore FBO Information
 
Add another FBO Facility Photos Catering Weather Repair Courtesy Rental Type 100LL JetA JetA+ MOGAS 8087
Services Transportation Aviation Fuel Prices: Prices include tax


GlobalAir.com Airport Resource Center model-print
model-print
model-print
model-print